sensor_id;sensor_type;location;lat;lon;timestamp;pressure;altitude;pressure_sealevel;temperature;humidity
22753;BME280;11543;43.144;24.684;2023-07-13T12:23:29;98578.22;;;46.50;21.66
22753;BME280;11543;43.144;24.684;2023-07-13T12:25:57;98571.31;;;46.44;21.87
22753;BME280;11543;43.144;24.684;2023-07-13T12:28:39;98573.75;;;46.45;21.50
22753;BME280;11543;43.144;24.684;2023-07-13T12:31:25;98567.25;;;46.41;21.39
22753;BME280;11543;43.144;24.684;2023-07-13T12:36:36;98571.72;;;46.42;20.63
22753;BME280;11543;43.144;24.684;2023-07-13T12:42:23;98580.66;;;46.51;22.30
22753;BME280;11543;43.144;24.684;2023-07-13T12:47:41;98567.72;;;46.61;21.29
22753;BME280;11543;43.144;24.684;2023-07-13T12:50:30;98571.78;;;46.63;20.86
22753;BME280;11543;43.144;24.684;2023-07-13T12:55:57;98568.94;;;46.63;21.33
22753;BME280;11543;43.144;24.684;2023-07-13T13:00:56;98572.28;;;46.87;20.44
22753;BME280;11543;43.144;24.684;2023-07-13T13:03:46;98569.78;;;46.75;20.49
22753;BME280;11543;43.144;24.684;2023-07-13T13:08:41;98567.69;;;46.50;21.09
22753;BME280;11543;43.144;24.684;2023-07-13T13:11:40;98567.66;;;46.43;19.93
22753;BME280;11543;43.144;24.684;2023-07-13T13:14:29;98562.81;;;46.40;20.03
22753;BME280;11543;43.144;24.684;2023-07-13T13:16:59;98568.47;;;46.44;19.95
22753;BME280;11543;43.144;24.684;2023-07-13T13:19:28;98572.53;;;46.46;20.02
22753;BME280;11543;43.144;24.684;2023-07-13T13:21:55;98556.72;;;46.45;20.39
22753;BME280;11543;43.144;24.684;2023-07-13T13:31:16;98566.84;;;46.39;20.47
22753;BME280;11543;43.144;24.684;2023-07-13T13:33:45;98556.34;;;46.50;20.25
22753;BME280;11543;43.144;24.684;2023-07-13T13:36:18;98553.06;;;46.41;20.46
22753;BME280;11543;43.144;24.684;2023-07-13T13:38:55;98568.47;;;46.44;20.73
22753;BME280;11543;43.144;24.684;2023-07-13T13:54:59;98535.25;;;46.55;19.94
22753;BME280;11543;43.144;24.684;2023-07-13T14:11:30;98540.22;;;46.90;18.97
22753;BME280;11543;43.144;24.684;2023-07-13T14:21:02;98512.94;;;46.46;19.99
22753;BME280;11543;43.144;24.684;2023-07-13T14:23:28;98520.25;;;46.44;20.05
22753;BME280;11543;43.144;24.684;2023-07-13T14:25:53;98518.63;;;46.46;19.82
22753;BME280;11543;43.144;24.684;2023-07-13T14:28:23;98534.44;;;46.47;20.41
22753;BME280;11543;43.144;24.684;2023-07-13T14:31:01;98525.91;;;46.40;20.06
22753;BME280;11543;43.144;24.684;2023-07-13T14:33:45;98514.16;;;46.38;19.21
22753;BME280;11543;43.144;24.684;2023-07-13T14:39:20;98531.16;;;46.38;20.12
22753;BME280;11543;43.144;24.684;2023-07-13T14:41:52;98521.78;;;46.27;18.90
22753;BME280;11543;43.144;24.684;2023-07-13T14:44:29;98516.47;;;46.08;20.50
22753;BME280;11543;43.144;24.684;2023-07-13T14:46:59;98519.69;;;46.03;20.33
22753;BME280;11543;43.144;24.684;2023-07-13T14:49:43;98505.41;;;45.88;20.40
22753;BME280;11543;43.144;24.684;2023-07-13T14:52:13;98506.63;;;45.94;20.41
22753;BME280;11543;43.144;24.684;2023-07-13T14:54:42;98499.28;;;45.79;20.58
22753;BME280;11543;43.144;24.684;2023-07-13T14:57:19;98508.22;;;45.85;20.44
22753;BME280;11543;43.144;24.684;2023-07-13T14:59:45;98500.88;;;45.73;19.97
22753;BME280;11543;43.144;24.684;2023-07-13T15:02:16;98501.66;;;45.70;19.98
22753;BME280;11543;43.144;24.684;2023-07-13T15:04:45;98509.75;;;45.68;20.16
22753;BME280;11543;43.144;24.684;2023-07-13T15:07:11;98510.56;;;45.65;21.05
22753;BME280;11543;43.144;24.684;2023-07-13T15:09:38;98506.41;;;45.52;21.20
22753;BME280;11543;43.144;24.684;2023-07-13T15:12:29;98512.06;;;45.52;21.75
22753;BME280;11543;43.144;24.684;2023-07-13T20:13:20;98580.63;;;31.03;54.45
22753;BME280;11543;43.144;24.684;2023-07-13T20:15:48;98569.66;;;30.93;54.71
22753;BME280;11543;43.144;24.684;2023-07-13T20:18:15;98577.31;;;31.01;54.74
22753;BME280;11543;43.144;24.684;2023-07-13T20:23:54;98562.94;;;30.99;54.01
22753;BME280;11543;43.144;24.684;2023-07-13T23:56:30;98435.47;;;29.26;58.27
